sensor_id;sensor_type;location;lat;lon;timestamp;temperature;humidity
421;DHT22;23959;49.046;8.468;2022-08-19T00:01:35;21.80;99.60
421;DHT22;23959;49.046;8.468;2022-08-19T00:04:05;21.90;99.60
421;DHT22;23959;49.046;8.468;2022-08-19T00:06:34;21.90;99.60
421;DHT22;23959;49.046;8.468;2022-08-19T00:09:06;21.90;99.60
421;DHT22;23959;49.046;8.468;2022-08-19T00:11:37;21.70;99.60
421;DHT22;23959;49.046;8.468;2022-08-19T00:14:07;21.50;99.60
421;DHT22;23959;49.046;8.468;2022-08-19T00:16:36;21.40;99.60
421;DHT22;23959;49.046;8.468;2022-08-19T00:19:03;21.20;99.60
421;DHT22;23959;49.046;8.468;2022-08-19T00:21:30;21.10;99.60
421;DHT22;23959;49.046;8.468;2022-08-19T00:23:58;21.10;99.60
421;DHT22;23959;49.046;8.468;2022-08-19T00:26:30;21.30;99.60
421;DHT22;23959;49.046;8.468;2022-08-19T00:28:59;21.50;99.60
421;DHT22;23959;49.046;8.468;2022-08-19T00:31:31;21.60;99.60
421;DHT22;23959;49.046;8.468;2022-08-19T00:34:02;21.60;99.60
421;DHT22;23959;49.046;8.468;2022-08-19T00:36:29;21.60;99.60
421;DHT22;23959;49.046;8.468;2022-08-19T00:38:56;21.60;99.60
421;DHT22;23959;49.046;8.468;2022-08-19T00:41:24;21.60;99.60
421;DHT22;23959;49.046;8.468;2022-08-19T00:46:24;21.60;99.60
421;DHT22;23959;49.046;8.468;2022-08-19T00:48:51;21.50;99.60
421;DHT22;23959;49.046;8.468;2022-08-19T00:51:18;21.50;99.60
421;DHT22;23959;49.046;8.468;2022-08-19T00:53:49;21.60;99.60
421;DHT22;23959;49.046;8.468;2022-08-19T00:56:20;21.60;99.60
421;DHT22;23959;49.046;8.468;2022-08-19T00:58:49;21.60;99.60
421;DHT22;23959;49.046;8.468;2022-08-19T01:01:20;21.70;99.60
421;DHT22;23959;49.046;8.468;2022-08-19T01:03:48;21.70;99.60
421;DHT22;23959;49.046;8.468;2022-08-19T01:06:16;21.70;99.60
421;DHT22;23959;49.046;8.468;2022-08-19T01:08:43;21.60;99.60
421;DHT22;23959;49.046;8.468;2022-08-19T01:11:12;21.40;99.60
421;DHT22;23959;49.046;8.468;2022-08-19T01:13:44;21.40;99.60
421;DHT22;23959;49.046;8.468;2022-08-19T01:16:17;21.40;99.60
421;DHT22;23959;49.046;8.468;2022-08-19T01:18:45;21.40;99.60
421;DHT22;23959;49.046;8.468;2022-08-19T01:21:37;21.50;99.60
421;DHT22;23959;49.046;8.468;2022-08-19T01:24:07;21.40;99.60
421;DHT22;23959;49.046;8.468;2022-08-19T01:26:42;21.40;99.60
421;DHT22;23959;49.046;8.468;2022-08-19T01:29:11;21.40;99.60
421;DHT22;23959;49.046;8.468;2022-08-19T01:31:43;21.40;99.60
421;DHT22;23959;49.046;8.468;2022-08-19T01:34:10;21.50;99.60
421;DHT22;23959;49.046;8.468;2022-08-19T01:36:45;21.50;99.60
421;DHT22;23959;49.046;8.468;2022-08-19T01:39:24;21.40;99.60
421;DHT22;23959;49.046;8.468;2022-08-19T01:41:56;21.30;99.60
421;DHT22;23959;49.046;8.468;2022-08-19T01:44:24;21.30;99.60
421;DHT22;23959;49.046;8.468;2022-08-19T01:46:51;21.20;99.60
421;DHT22;23959;49.046;8.468;2022-08-19T01:49:25;21.20;99.60
421;DHT22;23959;49.046;8.468;2022-08-19T01:51:56;21.20;99.60
421;DHT22;23959;49.046;8.468;2022-08-19T01:54:27;21.30;99.60
421;DHT22;23959;49.046;8.468;2022-08-19T01:57:03;21.30;99.60
421;DHT22;23959;49.046;8.468;2022-08-19T01:59:35;21.30;99.60
421;DHT22;23959;49.046;8.468;2022-08-19T02:02:06;21.30;99.60
421;DHT22;23959;49.046;8.468;2022-08-19T02:04:38;21.40;99.60
421;DHT22;23959;49.046;8.468;2022-08-19T02:07:09;21.50;99.60
421;DHT22;23959;49.046;8.468;2022-08-19T02:09:41;21.50;99.60
421;DHT22;23959;49.046;8.468;2022-08-19T02:12:16;21.40;99.60
421;DHT22;23959;49.046;8.468;2022-08-19T02:14:48;21.40;99.60
421;DHT22;23959;49.046;8.468;2022-08-19T02:17:19;21.50;99.60
421;DHT22;23959;49.046;8.468;2022-08-19T02:19:50;21.50;99.60
421;DHT22;23959;49.046;8.468;2022-08-19T02:22:17;21.50;99.60
421;DHT22;23959;49.046;8.468;2022-08-19T02:24:45;21.40;99.60
421;DHT22;23959;49.046;8.468;2022-08-19T02:27:17;21.20;99.60
421;DHT22;23959;49.046;8.468;2022-08-19T02:29:48;21.20;99.60
421;DHT22;23959;49.046;8.468;2022-08-19T02:32:19;21.20;99.60
421;DHT22;23959;49.046;8.468;2022-08-19T02:34:47;21.20;99.60
421;DHT22;23959;49.046;8.468;2022-08-19T02:37:16;21.20;99.60
421;DHT22;23959;49.046;8.468;2022-08-19T02:40:01;21.30;99.60
421;DHT22;23959;49.046;8.468;2022-08-19T02:42:31;21.40;99.60
421;DHT22;23959;49.046;8.468;2022-08-19T02:45:04;21.30;99.60
421;DHT22;23959;49.046;8.468;2022-08-19T02:47:32;21.10;99.60
421;DHT22;23959;49.046;8.468;2022-08-19T02:50:02;21.20;99.60
421;DHT22;23959;49.046;8.468;2022-08-19T02:52:31;21.30;99.60
421;DHT22;23959;49.046;8.468;2022-08-19T02:55:02;21.20;99.60
421;DHT22;23959;49.046;8.468;2022-08-19T02:57:30;21.20;99.60
421;DHT22;23959;49.046;8.468;2022-08-19T02:59:58;21.10;99.60
421;DHT22;23959;49.046;8.468;2022-08-19T03:02:25;21.10;99.60
421;DHT22;23959;49.046;8.468;2022-08-19T03:04:53;21.20;99.60
421;DHT22;23959;49.046;8.468;2022-08-19T03:07:19;21.20;99.60
421;DHT22;23959;49.046;8.468;2022-08-19T03:09:47;21.20;99.60
421;DHT22;23959;49.046;8.468;2022-08-19T03:12:19;21.20;99.60
421;DHT22;23959;49.046;8.468;2022-08-19T03:14:51;21.10;99.60
421;DHT22;23959;49.046;8.468;2022-08-19T03:17:22;21.00;99.60
421;DHT22;23959;49.046;8.468;2022-08-19T03:19:50;21.00;99.60
421;DHT22;23959;49.046;8.468;2022-08-19T03:22:18;20.90;99.60
421;DHT22;23959;49.046;8.468;2022-08-19T03:24:45;21.00;99.60
421;DHT22;23959;49.046;8.468;2022-08-19T03:27:16;21.00;99.60
421;DHT22;23959;49.046;8.468;2022-08-19T03:29:45;21.00;99.60
421;DHT22;23959;49.046;8.468;2022-08-19T03:32:12;21.00;99.60
421;DHT22;23959;49.046;8.468;2022-08-19T03:34:41;20.90;99.60
421;DHT22;23959;49.046;8.468;2022-08-19T03:37:11;21.00;99.60
421;DHT22;23959;49.046;8.468;2022-08-19T03:39:41;21.10;99.60
421;DHT22;23959;49.046;8.468;2022-08-19T03:42:12;20.90;99.60
421;DHT22;23959;49.046;8.468;2022-08-19T03:44:45;21.00;99.60
421;DHT22;23959;49.046;8.468;2022-08-19T03:47:12;20.90;99.60
421;DHT22;23959;49.046;8.468;2022-08-19T03:49:43;20.90;99.60
421;DHT22;23959;49.046;8.468;2022-08-19T03:52:13;20.80;99.60
421;DHT22;23959;49.046;8.468;2022-08-19T03:54:41;20.80;99.60
421;DHT22;23959;49.046;8.468;2022-08-19T03:57:13;20.80;99.60
421;DHT22;23959;49.046;8.468;2022-08-19T03:59:43;20.70;99.60
421;DHT22;23959;49.046;8.468;2022-08-19T04:02:12;20.70;99.60
421;DHT22;23959;49.046;8.468;2022-08-19T04:04:41;20.70;99.60
421;DHT22;23959;49.046;8.468;2022-08-19T04:07:10;20.60;99.60
421;DHT22;23959;49.046;8.468;2022-08-19T04:09:41;20.60;99.60
421;DHT22;23959;49.046;8.468;2022-08-19T04:12:11;20.40;99.60
421;DHT22;23959;49.046;8.468;2022-08-19T04:14:42;20.40;99.60
421;DHT22;23959;49.046;8.468;2022-08-19T04:17:10;20.50;99.60
421;DHT22;23959;49.046;8.468;2022-08-19T04:19:42;20.40;99.60
421;DHT22;23959;49.046;8.468;2022-08-19T04:22:10;20.40;99.60
421;DHT22;23959;49.046;8.468;2022-08-19T04:24:38;20.40;99.60
421;DHT22;23959;49.046;8.468;2022-08-19T04:27:06;20.40;99.60
421;DHT22;23959;49.046;8.468;2022-08-19T04:29:33;20.50;99.60
421;DHT22;23959;49.046;8.468;2022-08-19T04:32:08;20.60;99.60
421;DHT22;23959;49.046;8.468;2022-08-19T04:34:46;20.60;99.60
421;DHT22;23959;49.046;8.468;2022-08-19T04:37:18;20.50;99.60
421;DHT22;23959;49.046;8.468;2022-08-19T04:39:47;20.50;99.60
421;DHT22;23959;49.046;8.468;2022-08-19T04:42:33;20.40;99.60
421;DHT22;23959;49.046;8.468;2022-08-19T04:45:08;20.40;99.60
421;DHT22;23959;49.046;8.468;2022-08-19T04:47:38;20.50;99.60
421;DHT22;23959;49.046;8.468;2022-08-19T04:50:07;20.60;99.60
421;DHT22;23959;49.046;8.468;2022-08-19T04:52:34;20.60;99.60
421;DHT22;23959;49.046;8.468;2022-08-19T04:55:00;20.70;99.60
421;DHT22;23959;49.046;8.468;2022-08-19T04:57:28;20.80;99.60
421;DHT22;23959;49.046;8.468;2022-08-19T04:59:56;20.90;99.60
421;DHT22;23959;49.046;8.468;2022-08-19T05:02:23;20.80;99.60
421;DHT22;23959;49.046;8.468;2022-08-19T05:04:57;20.90;99.60
421;DHT22;23959;49.046;8.468;2022-08-19T05:07:26;20.80;99.60
421;DHT22;23959;49.046;8.468;2022-08-19T05:09:55;20.70;99.60
421;DHT22;23959;49.046;8.468;2022-08-19T05:12:23;20.60;99.60
421;DHT22;23959;49.046;8.468;2022-08-19T05:14:54;20.70;99.60
421;DHT22;23959;49.046;8.468;2022-08-19T05:17:26;20.80;99.60
421;DHT22;23959;49.046;8.468;2022-08-19T05:19:55;20.90;99.60
421;DHT22;23959;49.046;8.468;2022-08-19T05:22:42;20.90;99.60
421;DHT22;23959;49.046;8.468;2022-08-19T05:25:14;21.00;99.60
421;DHT22;23959;49.046;8.468;2022-08-19T05:27:42;21.00;99.60
421;DHT22;23959;49.046;8.468;2022-08-19T05:30:13;21.10;99.60
421;DHT22;23959;49.046;8.468;2022-08-19T05:32:40;21.10;99.60
421;DHT22;23959;49.046;8.468;2022-08-19T05:35:09;21.10;99.60
421;DHT22;23959;49.046;8.468;2022-08-19T05:37:36;21.20;99.60
421;DHT22;23959;49.046;8.468;2022-08-19T05:40:08;21.30;99.60
421;DHT22;23959;49.046;8.468;2022-08-19T05:42:35;21.20;99.60
421;DHT22;23959;49.046;8.468;2022-08-19T05:45:08;21.20;99.60
421;DHT22;23959;49.046;8.468;2022-08-19T05:47:37;21.20;99.60
421;DHT22;23959;49.046;8.468;2022-08-19T05:50:06;21.20;99.60
421;DHT22;23959;49.046;8.468;2022-08-19T05:52:37;21.40;99.60
421;DHT22;23959;49.046;8.468;2022-08-19T05:55:08;21.40;99.60
421;DHT22;23959;49.046;8.468;2022-08-19T05:57:36;21.40;99.60
421;DHT22;23959;49.046;8.468;2022-08-19T06:00:05;21.40;99.60
421;DHT22;23959;49.046;8.468;2022-08-19T06:02:37;21.40;99.60
421;DHT22;23959;49.046;8.468;2022-08-19T06:05:06;21.50;99.60
421;DHT22;23959;49.046;8.468;2022-08-19T06:07:36;21.50;99.60
421;DHT22;23959;49.046;8.468;2022-08-19T06:10:09;21.60;99.60
421;DHT22;23959;49.046;8.468;2022-08-19T06:12:37;21.50;99.60
421;DHT22;23959;49.046;8.468;2022-08-19T06:15:06;21.50;99.60
421;DHT22;23959;49.046;8.468;2022-08-19T06:17:33;21.60;99.60
421;DHT22;23959;49.046;8.468;2022-08-19T06:20:01;21.60;99.60
421;DHT22;23959;49.046;8.468;2022-08-19T06:22:28;21.80;99.60
421;DHT22;23959;49.046;8.468;2022-08-19T06:24:55;21.80;99.60
421;DHT22;23959;49.046;8.468;2022-08-19T06:27:26;21.70;99.60
421;DHT22;23959;49.046;8.468;2022-08-19T06:29:53;21.60;99.60
421;DHT22;23959;49.046;8.468;2022-08-19T06:32:21;21.50;99.60
421;DHT22;23959;49.046;8.468;2022-08-19T06:34:47;21.60;99.60
421;DHT22;23959;49.046;8.468;2022-08-19T06:37:14;21.70;99.60
421;DHT22;23959;49.046;8.468;2022-08-19T06:39:43;21.60;99.60
421;DHT22;23959;49.046;8.468;2022-08-19T06:42:11;21.80;99.60
421;DHT22;23959;49.046;8.468;2022-08-19T06:44:43;21.80;99.60
421;DHT22;23959;49.046;8.468;2022-08-19T06:47:19;21.70;99.60
421;DHT22;23959;49.046;8.468;2022-08-19T06:49:46;22.00;99.60
421;DHT22;23959;49.046;8.468;2022-08-19T06:52:14;22.10;99.60
421;DHT22;23959;49.046;8.468;2022-08-19T06:54:41;22.40;99.60
421;DHT22;23959;49.046;8.468;2022-08-19T06:57:09;22.50;99.60
421;DHT22;23959;49.046;8.468;2022-08-19T06:59:41;22.30;99.60
421;DHT22;23959;49.046;8.468;2022-08-19T07:02:09;22.50;99.60
421;DHT22;23959;49.046;8.468;2022-08-19T07:04:35;22.30;99.60
421;DHT22;23959;49.046;8.468;2022-08-19T07:07:08;22.50;99.60
421;DHT22;23959;49.046;8.468;2022-08-19T07:09:41;22.60;99.60
421;DHT22;23959;49.046;8.468;2022-08-19T07:12:11;22.90;99.60
421;DHT22;23959;49.046;8.468;2022-08-19T07:14:45;22.90;99.60
421;DHT22;23959;49.046;8.468;2022-08-19T07:17:14;23.00;99.60
421;DHT22;23959;49.046;8.468;2022-08-19T07:19:41;23.20;99.60
421;DHT22;23959;49.046;8.468;2022-08-19T07:22:09;23.00;99.60
421;DHT22;23959;49.046;8.468;2022-08-19T07:24:36;23.20;99.60
421;DHT22;23959;49.046;8.468;2022-08-19T07:27:05;23.60;99.60
421;DHT22;23959;49.046;8.468;2022-08-19T07:29:33;24.10;99.60
421;DHT22;23959;49.046;8.468;2022-08-19T07:32:03;23.90;99.60
421;DHT22;23959;49.046;8.468;2022-08-19T07:34:30;24.00;99.60
421;DHT22;23959;49.046;8.468;2022-08-19T07:37:06;24.00;99.60
421;DHT22;23959;49.046;8.468;2022-08-19T07:39:34;23.80;99.60
421;DHT22;23959;49.046;8.468;2022-08-19T07:42:08;23.80;99.60
421;DHT22;23959;49.046;8.468;2022-08-19T07:44:37;23.90;99.60
421;DHT22;23959;49.046;8.468;2022-08-19T07:47:05;23.80;99.60
421;DHT22;23959;49.046;8.468;2022-08-19T07:49:34;23.90;99.60
421;DHT22;23959;49.046;8.468;2022-08-19T07:52:07;24.20;99.60
421;DHT22;23959;49.046;8.468;2022-08-19T07:54:36;24.30;99.60
421;DHT22;23959;49.046;8.468;2022-08-19T07:57:05;24.10;99.60
421;DHT22;23959;49.046;8.468;2022-08-19T07:59:32;24.30;99.60
421;DHT22;23959;49.046;8.468;2022-08-19T08:02:00;24.10;99.60
421;DHT22;23959;49.046;8.468;2022-08-19T08:04:29;23.70;99.60
421;DHT22;23959;49.046;8.468;2022-08-19T08:07:15;23.90;99.60
421;DHT22;23959;49.046;8.468;2022-08-19T08:10:01;23.90;99.60
421;DHT22;23959;49.046;8.468;2022-08-19T08:12:34;24.10;99.60
421;DHT22;23959;49.046;8.468;2022-08-19T08:15:06;24.30;99.60
421;DHT22;23959;49.046;8.468;2022-08-19T08:17:34;24.20;99.60
421;DHT22;23959;49.046;8.468;2022-08-19T08:20:06;24.20;99.60
421;DHT22;23959;49.046;8.468;2022-08-19T08:22:33;24.40;99.60
421;DHT22;23959;49.046;8.468;2022-08-19T08:25:21;24.60;99.60
421;DHT22;23959;49.046;8.468;2022-08-19T08:27:49;24.90;99.60
421;DHT22;23959;49.046;8.468;2022-08-19T08:30:24;24.90;99.60
421;DHT22;23959;49.046;8.468;2022-08-19T08:32:52;25.10;99.60
421;DHT22;23959;49.046;8.468;2022-08-19T08:35:22;25.20;99.60
421;DHT22;23959;49.046;8.468;2022-08-19T08:37:52;25.40;99.60
421;DHT22;23959;49.046;8.468;2022-08-19T08:40:28;25.20;99.60
421;DHT22;23959;49.046;8.468;2022-08-19T08:45:37;25.20;99.60
421;DHT22;23959;49.046;8.468;2022-08-19T08:48:33;25.10;99.60
421;DHT22;23959;49.046;8.468;2022-08-19T08:51:05;25.30;99.60
421;DHT22;23959;49.046;8.468;2022-08-19T08:53:35;25.90;99.60
421;DHT22;23959;49.046;8.468;2022-08-19T08:56:04;26.10;99.60
421;DHT22;23959;49.046;8.468;2022-08-19T08:58:49;25.90;99.60
421;DHT22;23959;49.046;8.468;2022-08-19T09:01:17;25.80;99.60
421;DHT22;23959;49.046;8.468;2022-08-19T09:03:46;25.90;99.60
421;DHT22;23959;49.046;8.468;2022-08-19T09:06:14;26.10;99.60
421;DHT22;23959;49.046;8.468;2022-08-19T09:08:59;25.90;99.60
421;DHT22;23959;49.046;8.468;2022-08-19T09:14:57;25.70;99.60
421;DHT22;23959;49.046;8.468;2022-08-19T09:17:29;25.80;99.60
421;DHT22;23959;49.046;8.468;2022-08-19T09:22:38;25.50;99.60
421;DHT22;23959;49.046;8.468;2022-08-19T09:25:08;25.80;99.60
421;DHT22;23959;49.046;8.468;2022-08-19T09:27:37;26.20;99.60
421;DHT22;23959;49.046;8.468;2022-08-19T09:30:06;26.20;99.60
421;DHT22;23959;49.046;8.468;2022-08-19T09:32:36;26.30;99.60
421;DHT22;23959;49.046;8.468;2022-08-19T09:35:06;26.50;99.60
421;DHT22;23959;49.046;8.468;2022-08-19T09:37:36;26.30;99.60
421;DHT22;23959;49.046;8.468;2022-08-19T09:40:04;26.70;99.60
421;DHT22;23959;49.046;8.468;2022-08-19T09:42:31;27.30;99.60
421;DHT22;23959;49.046;8.468;2022-08-19T09:44:59;27.30;99.60
421;DHT22;23959;49.046;8.468;2022-08-19T09:47:26;26.50;99.60
421;DHT22;23959;49.046;8.468;2022-08-19T09:49:54;26.40;99.60
421;DHT22;23959;49.046;8.468;2022-08-19T09:52:21;26.20;99.60
421;DHT22;23959;49.046;8.468;2022-08-19T09:54:52;26.50;99.60
421;DHT22;23959;49.046;8.468;2022-08-19T09:57:19;26.50;99.60
421;DHT22;23959;49.046;8.468;2022-08-19T09:59:45;26.40;99.60
421;DHT22;23959;49.046;8.468;2022-08-19T10:02:12;26.40;99.60
421;DHT22;23959;49.046;8.468;2022-08-19T10:04:43;26.60;99.60
421;DHT22;23959;49.046;8.468;2022-08-19T10:07:29;26.80;99.60
421;DHT22;23959;49.046;8.468;2022-08-19T10:10:02;27.00;99.60
421;DHT22;23959;49.046;8.468;2022-08-19T10:12:29;27.30;99.60
421;DHT22;23959;49.046;8.468;2022-08-19T10:14:58;27.20;99.60
421;DHT22;23959;49.046;8.468;2022-08-19T10:17:26;26.90;99.60
421;DHT22;23959;49.046;8.468;2022-08-19T10:19:53;27.20;99.60
421;DHT22;23959;49.046;8.468;2022-08-19T10:22:25;27.40;99.60
421;DHT22;23959;49.046;8.468;2022-08-19T10:24:52;27.90;99.60
421;DHT22;23959;49.046;8.468;2022-08-19T10:27:21;27.50;99.60
421;DHT22;23959;49.046;8.468;2022-08-19T10:29:48;27.60;99.60
421;DHT22;23959;49.046;8.468;2022-08-19T10:32:15;27.40;99.60
421;DHT22;23959;49.046;8.468;2022-08-19T10:34:43;27.10;99.60
421;DHT22;23959;49.046;8.468;2022-08-19T10:37:15;27.10;99.60
421;DHT22;23959;49.046;8.468;2022-08-19T10:39:46;27.60;99.60
421;DHT22;23959;49.046;8.468;2022-08-19T10:42:14;27.30;99.60
421;DHT22;23959;49.046;8.468;2022-08-19T10:44:47;27.30;99.60
421;DHT22;23959;49.046;8.468;2022-08-19T10:47:15;27.20;99.60
421;DHT22;23959;49.046;8.468;2022-08-19T10:49:43;27.10;99.60
421;DHT22;23959;49.046;8.468;2022-08-19T10:52:30;27.30;99.60
421;DHT22;23959;49.046;8.468;2022-08-19T10:55:01;27.60;99.60
421;DHT22;23959;49.046;8.468;2022-08-19T10:57:47;28.30;99.60
421;DHT22;23959;49.046;8.468;2022-08-19T11:00:15;29.00;99.60
421;DHT22;23959;49.046;8.468;2022-08-19T11:02:44;28.80;99.60
421;DHT22;23959;49.046;8.468;2022-08-19T11:05:11;29.10;99.60
421;DHT22;23959;49.046;8.468;2022-08-19T11:07:39;29.00;99.60
421;DHT22;23959;49.046;8.468;2022-08-19T11:10:12;29.90;99.60
421;DHT22;23959;49.046;8.468;2022-08-19T11:12:44;29.70;99.60
421;DHT22;23959;49.046;8.468;2022-08-19T11:15:12;29.60;99.60
421;DHT22;23959;49.046;8.468;2022-08-19T11:17:39;30.30;99.60
421;DHT22;23959;49.046;8.468;2022-08-19T11:20:11;30.60;99.60
421;DHT22;23959;49.046;8.468;2022-08-19T11:22:42;28.80;99.60
421;DHT22;23959;49.046;8.468;2022-08-19T11:25:11;28.10;99.60
421;DHT22;23959;49.046;8.468;2022-08-19T11:27:40;29.30;99.60
421;DHT22;23959;49.046;8.468;2022-08-19T11:30:14;30.20;99.60
421;DHT22;23959;49.046;8.468;2022-08-19T11:32:42;29.90;99.60
421;DHT22;23959;49.046;8.468;2022-08-19T11:35:13;30.10;99.60
421;DHT22;23959;49.046;8.468;2022-08-19T11:37:41;30.00;99.60
421;DHT22;23959;49.046;8.468;2022-08-19T11:40:11;28.80;99.60
421;DHT22;23959;49.046;8.468;2022-08-19T11:42:38;28.80;99.60
421;DHT22;23959;49.046;8.468;2022-08-19T11:45:26;29.20;99.60
421;DHT22;23959;49.046;8.468;2022-08-19T11:47:54;29.30;99.60
421;DHT22;23959;49.046;8.468;2022-08-19T11:50:21;29.10;99.60
421;DHT22;23959;49.046;8.468;2022-08-19T11:52:52;29.00;99.60
421;DHT22;23959;49.046;8.468;2022-08-19T11:55:20;29.00;99.60
421;DHT22;23959;49.046;8.468;2022-08-19T11:57:48;28.60;99.60
421;DHT22;23959;49.046;8.468;2022-08-19T12:00:16;28.50;99.60
421;DHT22;23959;49.046;8.468;2022-08-19T12:02:44;28.80;99.60
421;DHT22;23959;49.046;8.468;2022-08-19T12:05:11;29.60;99.60
421;DHT22;23959;49.046;8.468;2022-08-19T12:07:42;29.50;99.60
421;DHT22;23959;49.046;8.468;2022-08-19T12:10:10;29.30;99.60
421;DHT22;23959;49.046;8.468;2022-08-19T12:12:39;29.10;99.60
421;DHT22;23959;49.046;8.468;2022-08-19T12:15:10;29.30;99.60
421;DHT22;23959;49.046;8.468;2022-08-19T12:17:38;30.40;99.60
421;DHT22;23959;49.046;8.468;2022-08-19T12:20:12;30.50;99.60
421;DHT22;23959;49.046;8.468;2022-08-19T12:22:46;30.90;99.60
421;DHT22;23959;49.046;8.468;2022-08-19T12:25:17;30.30;99.60
421;DHT22;23959;49.046;8.468;2022-08-19T12:27:45;30.00;99.60
421;DHT22;23959;49.046;8.468;2022-08-19T12:30:16;29.20;99.60
421;DHT22;23959;49.046;8.468;2022-08-19T12:32:43;28.70;99.60
421;DHT22;23959;49.046;8.468;2022-08-19T12:35:10;28.60;99.60
421;DHT22;23959;49.046;8.468;2022-08-19T12:37:38;28.60;99.60
421;DHT22;23959;49.046;8.468;2022-08-19T12:40:06;28.50;99.60
421;DHT22;23959;49.046;8.468;2022-08-19T12:42:34;28.80;99.60
421;DHT22;23959;49.046;8.468;2022-08-19T12:45:00;29.40;99.60
421;DHT22;23959;49.046;8.468;2022-08-19T12:47:28;29.80;99.60
421;DHT22;23959;49.046;8.468;2022-08-19T12:49:57;29.50;99.60
421;DHT22;23959;49.046;8.468;2022-08-19T12:52:25;29.30;99.60
421;DHT22;23959;49.046;8.468;2022-08-19T12:54:55;28.90;99.60
421;DHT22;23959;49.046;8.468;2022-08-19T12:57:25;29.00;99.60
421;DHT22;23959;49.046;8.468;2022-08-19T12:59:53;29.10;99.60
421;DHT22;23959;49.046;8.468;2022-08-19T13:02:20;30.10;99.60
421;DHT22;23959;49.046;8.468;2022-08-19T13:04:49;31.50;99.60
421;DHT22;23959;49.046;8.468;2022-08-19T13:07:17;32.80;99.60
421;DHT22;23959;49.046;8.468;2022-08-19T13:09:44;32.70;99.60
421;DHT22;23959;49.046;8.468;2022-08-19T13:12:16;32.30;99.60
421;DHT22;23959;49.046;8.468;2022-08-19T13:14:43;31.40;99.60
421;DHT22;23959;49.046;8.468;2022-08-19T13:17:18;30.70;99.60
421;DHT22;23959;49.046;8.468;2022-08-19T13:19:45;30.00;99.60
421;DHT22;23959;49.046;8.468;2022-08-19T13:22:16;29.30;99.60
421;DHT22;23959;49.046;8.468;2022-08-19T13:24:44;28.80;99.60
421;DHT22;23959;49.046;8.468;2022-08-19T13:27:11;28.50;99.60
421;DHT22;23959;49.046;8.468;2022-08-19T13:29:42;28.40;99.60
421;DHT22;23959;49.046;8.468;2022-08-19T13:32:29;28.30;99.60
421;DHT22;23959;49.046;8.468;2022-08-19T13:35:15;28.20;99.60
421;DHT22;23959;49.046;8.468;2022-08-19T13:37:43;28.30;99.60
421;DHT22;23959;49.046;8.468;2022-08-19T13:40:17;28.40;99.60
421;DHT22;23959;49.046;8.468;2022-08-19T13:42:47;28.60;99.60
421;DHT22;23959;49.046;8.468;2022-08-19T13:45:16;29.20;99.60
421;DHT22;23959;49.046;8.468;2022-08-19T13:47:46;30.20;99.60
421;DHT22;23959;49.046;8.468;2022-08-19T13:50:18;31.00;99.60
421;DHT22;23959;49.046;8.468;2022-08-19T13:52:46;31.80;99.60
421;DHT22;23959;49.046;8.468;2022-08-19T13:55:16;32.60;99.60
421;DHT22;23959;49.046;8.468;2022-08-19T13:57:44;33.40;99.60
421;DHT22;23959;49.046;8.468;2022-08-19T14:00:16;33.20;99.40
421;DHT22;23959;49.046;8.468;2022-08-19T14:02:49;33.10;99.60
421;DHT22;23959;49.046;8.468;2022-08-19T14:05:18;33.10;98.70
421;DHT22;23959;49.046;8.468;2022-08-19T14:07:45;32.60;99.60
421;DHT22;23959;49.046;8.468;2022-08-19T14:10:14;32.40;99.60
421;DHT22;23959;49.046;8.468;2022-08-19T14:12:46;32.80;98.20
421;DHT22;23959;49.046;8.468;2022-08-19T14:15:13;32.60;95.90
421;DHT22;23959;49.046;8.468;2022-08-19T14:17:43;32.10;96.70
421;DHT22;23959;49.046;8.468;2022-08-19T14:20:13;31.40;97.30
421;DHT22;23959;49.046;8.468;2022-08-19T14:22:46;31.10;98.20
421;DHT22;23959;49.046;8.468;2022-08-19T14:25:20;31.40;98.20
421;DHT22;23959;49.046;8.468;2022-08-19T14:27:48;32.10;96.60
421;DHT22;23959;49.046;8.468;2022-08-19T14:30:19;32.60;95.60
421;DHT22;23959;49.046;8.468;2022-08-19T14:32:46;32.60;95.00
421;DHT22;23959;49.046;8.468;2022-08-19T14:35:18;32.40;94.70
421;DHT22;23959;49.046;8.468;2022-08-19T14:37:46;32.10;96.10
421;DHT22;23959;49.046;8.468;2022-08-19T14:40:18;32.10;96.10
421;DHT22;23959;49.046;8.468;2022-08-19T14:42:49;32.70;96.00
421;DHT22;23959;49.046;8.468;2022-08-19T14:45:17;32.80;95.00
421;DHT22;23959;49.046;8.468;2022-08-19T14:47:51;32.30;95.90
421;DHT22;23959;49.046;8.468;2022-08-19T14:50:22;31.30;97.70
421;DHT22;23959;49.046;8.468;2022-08-19T14:52:56;30.90;98.20
421;DHT22;23959;49.046;8.468;2022-08-19T14:55:24;30.90;98.60
421;DHT22;23959;49.046;8.468;2022-08-19T14:57:51;30.90;98.30
421;DHT22;23959;49.046;8.468;2022-08-19T15:00:19;30.80;98.50
421;DHT22;23959;49.046;8.468;2022-08-19T15:02:47;30.30;99.50
421;DHT22;23959;49.046;8.468;2022-08-19T15:05:14;29.90;99.60
421;DHT22;23959;49.046;8.468;2022-08-19T15:07:44;30.00;99.60
421;DHT22;23959;49.046;8.468;2022-08-19T15:10:12;30.00;99.60
421;DHT22;23959;49.046;8.468;2022-08-19T15:12:39;30.10;99.60
421;DHT22;23959;49.046;8.468;2022-08-19T15:15:11;30.10;99.60
421;DHT22;23959;49.046;8.468;2022-08-19T15:17:44;30.10;99.60
421;DHT22;23959;49.046;8.468;2022-08-19T15:20:13;30.00;99.60
421;DHT22;23959;49.046;8.468;2022-08-19T15:22:40;29.70;99.60
421;DHT22;23959;49.046;8.468;2022-08-19T15:25:13;29.60;99.60
421;DHT22;23959;49.046;8.468;2022-08-19T15:27:45;29.60;99.60
421;DHT22;23959;49.046;8.468;2022-08-19T15:30:18;29.80;99.60
421;DHT22;23959;49.046;8.468;2022-08-19T15:32:46;29.90;99.60
421;DHT22;23959;49.046;8.468;2022-08-19T15:35:12;30.00;99.60
421;DHT22;23959;49.046;8.468;2022-08-19T15:37:40;30.00;99.60
421;DHT22;23959;49.046;8.468;2022-08-19T15:40:09;29.90;99.60
421;DHT22;23959;49.046;8.468;2022-08-19T15:42:47;29.80;99.60
421;DHT22;23959;49.046;8.468;2022-08-19T15:45:17;29.60;99.60
421;DHT22;23959;49.046;8.468;2022-08-19T15:47:48;29.60;99.60
421;DHT22;23959;49.046;8.468;2022-08-19T15:50:18;29.50;99.60
421;DHT22;23959;49.046;8.468;2022-08-19T15:52:58;29.60;99.60
421;DHT22;23959;49.046;8.468;2022-08-19T15:55:29;29.70;99.60
421;DHT22;23959;49.046;8.468;2022-08-19T15:58:02;29.70;99.60
421;DHT22;23959;49.046;8.468;2022-08-19T16:00:47;29.60;99.60
421;DHT22;23959;49.046;8.468;2022-08-19T16:03:33;29.50;99.60
421;DHT22;23959;49.046;8.468;2022-08-19T16:06:18;29.50;99.60
421;DHT22;23959;49.046;8.468;2022-08-19T16:08:53;29.60;99.60
421;DHT22;23959;49.046;8.468;2022-08-19T16:11:26;29.50;99.60
421;DHT22;23959;49.046;8.468;2022-08-19T16:13:59;29.40;99.60
421;DHT22;23959;49.046;8.468;2022-08-19T16:16:32;29.50;99.60
421;DHT22;23959;49.046;8.468;2022-08-19T16:19:03;29.40;99.60
421;DHT22;23959;49.046;8.468;2022-08-19T16:21:33;29.50;99.60
421;DHT22;23959;49.046;8.468;2022-08-19T16:24:03;29.40;99.60
421;DHT22;23959;49.046;8.468;2022-08-19T16:26:31;29.30;99.60
421;DHT22;23959;49.046;8.468;2022-08-19T16:29:04;29.30;99.60
421;DHT22;23959;49.046;8.468;2022-08-19T16:31:34;29.40;99.60
421;DHT22;23959;49.046;8.468;2022-08-19T16:34:02;29.40;99.60